createdAt,value
2023-03-05T00:01:35.598Z,84.21
2023-03-05T00:03:38.570Z,84.43
2023-03-05T00:05:43.229Z,85.04
2023-03-05T00:07:46.392Z,83.89
2023-03-05T00:09:49.424Z,83.90
2023-03-05T00:11:52.766Z,85.25
2023-03-05T00:14:00.980Z,83.83
2023-03-05T00:16:04.723Z,83.87
2023-03-05T00:18:07.736Z,83.91
2023-03-05T00:20:11.588Z,82.69
2023-03-05T00:22:16.532Z,82.72
2023-03-05T00:24:19.617Z,83.00
2023-03-05T00:26:25.180Z,83.38
2023-03-05T00:28:28.098Z,83.01
2023-03-05T00:30:31.658Z,83.28
2023-03-05T00:32:36.026Z,84.30
2023-03-05T00:34:38.919Z,73.43
2023-03-05T00:36:42.628Z,76.09
2023-03-05T00:38:47.299Z,75.65
2023-03-05T00:40:51.473Z,74.07
2023-03-05T00:42:54.621Z,75.37
2023-03-05T00:44:57.563Z,74.70
2023-03-05T00:47:05.221Z,73.75
2023-03-05T00:49:08.467Z,74.58
2023-03-05T00:51:11.559Z,79.08
2023-03-05T00:53:14.640Z,80.42
2023-03-05T00:55:19.450Z,77.79
2023-03-05T00:57:22.549Z,77.95
2023-03-05T00:59:25.500Z,79.48
2023-03-05T01:01:29.480Z,79.79
2023-03-05T01:03:33.904Z,81.97
2023-03-05T01:05:37.178Z,80.83
2023-03-05T01:07:40.941Z,81.58
2023-03-05T01:09:43.914Z,81.47
2023-03-05T01:11:48.363Z,82.71
2023-03-05T01:13:51.288Z,81.32
2023-03-05T01:15:54.437Z,79.89
2023-03-05T01:17:57.317Z,81.70
2023-03-05T01:20:00.382Z,81.88
2023-03-05T01:22:03.484Z,81.40
2023-03-05T01:24:07.647Z,80.66
2023-03-05T01:26:10.715Z,80.95
2023-03-05T01:28:15.752Z,80.65
2023-03-05T01:30:18.921Z,81.29
2023-03-05T01:32:25.047Z,79.33
2023-03-05T01:34:28.013Z,76.93
2023-03-05T01:36:32.344Z,79.93
2023-03-05T01:38:35.188Z,79.40
2023-03-05T01:40:38.053Z,79.32
2023-03-05T01:42:41.025Z,77.96
2023-03-05T01:45:04.537Z,77.67
2023-03-05T01:47:07.462Z,76.89
2023-03-05T01:49:20.025Z,78.05
2023-03-05T01:51:27.389Z,78.87
2023-03-05T01:53:31.349Z,80.46
2023-03-05T01:55:37.601Z,79.42
2023-03-05T01:57:44.853Z,78.44
2023-03-05T01:59:51.381Z,76.52
2023-03-05T02:01:58.404Z,76.76
2023-03-05T02:04:02.770Z,76.14
2023-03-05T02:06:06.409Z,76.24
2023-03-05T02:08:12.049Z,76.62
2023-03-05T02:10:17.409Z,76.34
2023-03-05T02:12:20.590Z,76.84
2023-03-05T02:14:26.780Z,76.73
2023-03-05T02:16:36.269Z,75.67
2023-03-05T02:18:40.769Z,77.34
2023-03-05T02:20:46.269Z,77.82
2023-03-05T02:22:50.924Z,77.82
2023-03-05T02:24:53.848Z,78.09
2023-03-05T02:26:56.845Z,77.72
2023-03-05T02:29:03.474Z,77.83
2023-03-05T02:31:10.435Z,79.51
2023-03-05T02:33:15.097Z,80.15
2023-03-05T02:35:18.803Z,79.44
2023-03-05T02:37:22.445Z,78.27
2023-03-05T02:39:29.105Z,78.38
2023-03-05T02:41:31.983Z,77.05
2023-03-05T02:43:35.524Z,78.88
2023-03-05T02:45:39.782Z,79.46
2023-03-05T02:47:42.944Z,80.61
2023-03-05T02:49:45.954Z,78.99
2023-03-05T02:51:52.064Z,78.83
2023-03-05T02:53:55.533Z,78.88
2023-03-05T02:56:04.876Z,78.05
2023-03-05T02:58:10.676Z,76.60
2023-03-05T03:00:14.768Z,77.33
2023-03-05T03:02:17.917Z,77.19
2023-03-05T03:04:21.169Z,77.77
2023-03-05T03:06:23.998Z,76.85
2023-03-05T03:08:27.246Z,76.70
2023-03-05T03:10:30.585Z,77.07
2023-03-05T03:12:37.803Z,77.47
2023-03-05T03:14:42.920Z,76.40
2023-03-05T03:16:46.175Z,77.55
2023-03-05T03:18:49.230Z,77.19
2023-03-05T03:20:52.218Z,76.94
2023-03-05T03:22:55.555Z,76.30
2023-03-05T03:24:58.649Z,76.69
2023-03-05T03:27:02.119Z,77.64
2023-03-05T03:29:06.599Z,76.58
2023-03-05T03:31:09.650Z,77.36
2023-03-05T03:33:13.041Z,76.82
2023-03-05T03:35:15.944Z,75.93
2023-03-05T03:37:18.839Z,75.58
2023-03-05T03:39:30.016Z,75.37
2023-03-05T03:41:33.881Z,74.44
2023-03-05T03:43:37.443Z,74.64
2023-03-05T03:45:48.331Z,75.25
2023-03-05T03:47:52.195Z,76.57
2023-03-05T03:49:55.488Z,76.30
2023-03-05T03:52:01.380Z,76.95
2023-03-05T03:54:04.543Z,76.30
2023-03-05T03:56:07.974Z,76.47
2023-03-05T03:58:11.281Z,76.58
2023-03-05T04:00:14.973Z,76.62
2023-03-05T04:02:19.713Z,77.04
2023-03-05T04:04:22.634Z,77.67
2023-03-05T04:06:25.763Z,78.49
2023-03-05T04:08:28.707Z,77.78
2023-03-05T04:10:31.723Z,79.77
2023-03-05T04:12:37.322Z,80.28
2023-03-05T04:14:39.962Z,79.76
2023-03-05T04:16:52.063Z,79.36
2023-03-05T04:18:56.805Z,79.97
2023-03-05T04:20:59.762Z,80.21
2023-03-05T04:23:02.833Z,79.57
2023-03-05T04:25:06.963Z,79.00
2023-03-05T04:27:10.446Z,78.89
2023-03-05T04:29:13.541Z,78.17
2023-03-05T04:31:17.602Z,78.49
2023-03-05T04:33:23.048Z,77.87
2023-03-05T04:35:27.606Z,77.44
2023-03-05T04:37:30.436Z,78.47
2023-03-05T04:39:33.694Z,79.90
2023-03-05T04:41:36.735Z,80.06
2023-03-05T04:43:39.920Z,80.52
2023-03-05T04:45:46.622Z,80.44
2023-03-05T04:47:55.904Z,80.68
2023-03-05T04:50:01.179Z,80.14
2023-03-05T04:52:12.403Z,79.39
2023-03-05T04:54:15.724Z,80.75
2023-03-05T04:56:19.012Z,81.00
2023-03-05T04:58:29.793Z,81.20
2023-03-05T05:00:33.133Z,81.85
2023-03-05T05:02:36.253Z,81.22
2023-03-05T05:04:39.593Z,80.71
2023-03-05T05:06:42.579Z,81.48
2023-03-05T05:08:47.151Z,81.95
2023-03-05T05:10:57.716Z,81.89
2023-03-05T05:13:00.638Z,81.91
2023-03-05T05:15:04.401Z,83.11
2023-03-05T05:17:07.500Z,83.12
2023-03-05T05:19:10.587Z,83.15
2023-03-05T05:21:15.063Z,82.98
2023-03-05T05:23:18.615Z,83.05
2023-03-05T05:25:23.069Z,83.01
2023-03-05T05:27:25.930Z,83.50
2023-03-05T05:29:28.796Z,83.91
2023-03-05T05:31:31.966Z,84.41
2023-03-05T05:33:35.284Z,84.21
2023-03-05T05:35:40.297Z,83.91
2023-03-05T05:37:43.439Z,84.12
2023-03-05T05:39:50.485Z,85.08
2023-03-05T05:41:54.921Z,85.68
2023-03-05T05:43:57.839Z,85.73
2023-03-05T05:46:01.509Z,85.61
2023-03-05T05:48:04.482Z,85.25
2023-03-05T05:50:08.254Z,85.15
2023-03-05T05:52:11.251Z,86.13
2023-03-05T05:54:15.416Z,85.74
2023-03-05T05:56:18.680Z,86.06
2023-03-05T05:58:23.172Z,86.13
2023-03-05T06:00:26.112Z,86.69
2023-03-05T06:02:29.164Z,86.96
2023-03-05T06:04:32.242Z,87.43
2023-03-05T06:06:35.376Z,87.95
2023-03-05T06:08:38.945Z,87.51
2023-03-05T06:10:41.893Z,88.02
2023-03-05T06:12:44.931Z,87.33
2023-03-05T06:14:49.801Z,87.97
2023-03-05T06:16:52.629Z,87.79
2023-03-05T06:18:55.744Z,87.67
2023-03-05T06:21:00.190Z,88.20
2023-03-05T06:23:03.165Z,87.95
2023-03-05T06:25:07.130Z,87.75
2023-03-05T06:27:10.421Z,88.01
2023-03-05T06:29:13.382Z,87.71
2023-03-05T06:31:22.241Z,87.39
2023-03-05T06:33:25.602Z,88.00
2023-03-05T06:35:28.608Z,88.30
2023-03-05T06:37:31.751Z,87.73
2023-03-05T06:39:34.940Z,87.78
2023-03-05T06:41:37.879Z,88.07
2023-03-05T06:43:43.184Z,88.42
2023-03-05T06:45:46.098Z,87.49
2023-03-05T06:47:50.491Z,88.21
2023-03-05T06:49:53.319Z,86.89
2023-03-05T06:51:56.238Z,87.41
2023-03-05T06:54:02.078Z,87.07
2023-03-05T06:56:05.608Z,87.21
2023-03-05T06:58:08.549Z,87.86
2023-03-05T07:00:12.843Z,87.60
2023-03-05T07:02:16.113Z,87.73
2023-03-05T07:04:20.463Z,87.44
2023-03-05T07:06:23.886Z,87.29
2023-03-05T07:08:26.840Z,86.83
2023-03-05T07:10:29.719Z,87.16
2023-03-05T07:12:32.822Z,87.92
2023-03-05T07:14:35.841Z,87.26
2023-03-05T07:16:38.845Z,87.14
2023-03-05T07:18:42.010Z,87.32
2023-03-05T07:20:46.560Z,86.54
2023-03-05T07:22:49.423Z,87.62
2023-03-05T07:24:52.379Z,87.40
2023-03-05T07:26:55.223Z,86.58
2023-03-05T07:28:58.239Z,86.75
2023-03-05T07:31:03.770Z,86.95
2023-03-05T07:33:06.493Z,87.43
2023-03-05T07:35:10.366Z,86.05
2023-03-05T07:37:15.842Z,87.33
2023-03-05T07:39:21.660Z,86.52
2023-03-05T07:41:24.812Z,86.67
2023-03-05T07:43:27.881Z,87.85
2023-03-05T07:45:30.782Z,86.58
2023-03-05T07:47:33.764Z,86.45
2023-03-05T07:49:36.973Z,85.74
2023-03-05T07:51:41.651Z,86.62
2023-03-05T07:53:47.812Z,86.81
2023-03-05T07:55:50.722Z,87.18
2023-03-05T07:57:53.922Z,86.84
2023-03-05T07:59:57.255Z,86.62
2023-03-05T08:02:00.560Z,86.89
2023-03-05T08:04:04.079Z,86.47
2023-03-05T08:06:07.652Z,86.06
2023-03-05T08:08:11.455Z,86.76
2023-03-05T08:10:16.591Z,87.13
2023-03-05T08:12:19.482Z,86.73
2023-03-05T08:14:22.573Z,87.60
2023-03-05T08:16:26.686Z,87.24
2023-03-05T08:18:29.561Z,87.46
2023-03-05T08:20:35.217Z,86.05
2023-03-05T08:22:38.487Z,86.98
2023-03-05T08:24:41.349Z,87.11
2023-03-05T08:26:45.806Z,86.83
2023-03-05T08:28:49.151Z,87.55
2023-03-05T08:30:52.415Z,86.41
2023-03-05T08:32:55.919Z,86.29
2023-03-05T08:34:59.445Z,86.45
2023-03-05T08:37:02.640Z,86.67
2023-03-05T08:39:07.211Z,87.42
2023-03-05T08:41:10.053Z,86.23
2023-03-05T08:43:15.506Z,87.33
2023-03-05T08:45:18.562Z,88.59
2023-03-05T08:47:21.468Z,87.53
2023-03-05T08:49:24.402Z,89.37
2023-03-05T08:51:27.808Z,88.55
2023-03-05T08:53:30.762Z,89.17
2023-03-05T08:55:33.696Z,88.32
2023-03-05T08:57:36.665Z,88.52
2023-03-05T08:59:41.046Z,89.11
2023-03-05T09:01:44.063Z,89.62
2023-03-05T09:03:47.244Z,89.09
2023-03-05T09:05:51.646Z,90.47
2023-03-05T09:07:54.602Z,89.78
2023-03-05T09:09:57.531Z,88.91
2023-03-05T09:12:00.737Z,90.13
2023-03-05T09:14:04.030Z,89.39
2023-03-05T09:16:11.404Z,90.17
2023-03-05T09:18:14.603Z,89.45
2023-03-05T09:20:17.981Z,89.51
2023-03-05T09:22:20.967Z,89.27
2023-03-05T09:24:24.934Z,87.87
2023-03-05T09:26:28.251Z,88.34
2023-03-05T09:28:31.250Z,88.60
2023-03-05T09:30:35.455Z,87.22
2023-03-05T09:32:40.009Z,86.82
2023-03-05T09:34:43.175Z,86.76
2023-03-05T09:36:46.177Z,86.68
2023-03-05T09:38:49.180Z,86.81
2023-03-05T09:40:58.862Z,86.25
2023-03-05T09:43:08.701Z,86.32
2023-03-05T09:45:21.873Z,85.33
2023-03-05T09:47:45.180Z,84.96
2023-03-05T09:49:58.419Z,84.85
2023-03-05T09:52:07.712Z,84.78
2023-03-05T09:54:16.945Z,84.07
2023-03-05T09:56:24.040Z,85.21
2023-03-05T09:58:34.621Z,84.50
2023-03-05T10:00:41.614Z,82.90
2023-03-05T10:02:51.554Z,83.13
2023-03-05T10:05:04.819Z,83.81
2023-03-05T10:07:15.693Z,83.32
2023-03-05T10:09:30.953Z,84.68
2023-03-05T10:11:54.367Z,84.37
2023-03-05T10:13:57.864Z,84.57
2023-03-05T10:16:11.548Z,82.97
2023-03-05T10:18:23.541Z,83.47
2023-03-05T10:21:02.487Z,83.15
2023-03-05T10:23:21.143Z,82.90
2023-03-05T10:25:34.651Z,82.38
2023-03-05T10:27:49.847Z,83.14
2023-03-05T10:30:01.658Z,82.97
2023-03-05T10:32:17.361Z,83.22
2023-03-05T10:34:49.893Z,81.44
2023-03-05T10:37:20.352Z,80.68
2023-03-05T10:39:53.182Z,80.82
2023-03-05T10:42:06.313Z,80.67
2023-03-05T10:44:17.054Z,81.62
2023-03-05T10:46:24.673Z,79.33
2023-03-05T10:48:38.543Z,78.91
2023-03-05T10:50:45.106Z,78.80
2023-03-05T10:52:55.759Z,78.97
2023-03-05T10:54:58.726Z,76.89
2023-03-05T10:57:14.402Z,78.45
2023-03-05T10:59:17.350Z,76.34
2023-03-05T11:01:23.197Z,74.86
2023-03-05T11:03:26.514Z,74.07
2023-03-05T11:05:40.230Z,71.69
2023-03-05T11:07:43.398Z,73.60
2023-03-05T11:10:04.940Z,72.42
2023-03-05T11:12:14.216Z,72.23
2023-03-05T11:14:31.153Z,72.89
2023-03-05T11:16:45.869Z,71.80
2023-03-05T11:18:49.281Z,70.27
2023-03-05T11:20:52.772Z,71.72
2023-03-05T11:23:05.088Z,69.29
2023-03-05T11:25:19.347Z,70.08
2023-03-05T11:27:26.316Z,69.41
2023-03-05T11:29:31.362Z,68.71
2023-03-05T11:31:34.490Z,69.05
2023-03-05T11:33:38.385Z,68.92
2023-03-05T11:35:43.565Z,67.56
2023-03-05T11:38:00.917Z,67.95
2023-03-05T11:40:19.800Z,67.13
2023-03-05T11:42:25.615Z,65.94
2023-03-05T11:44:34.485Z,66.19
2023-03-05T11:46:42.184Z,66.08
2023-03-05T11:48:47.378Z,66.46
2023-03-05T11:50:55.687Z,64.55
2023-03-05T11:53:02.789Z,64.51
2023-03-05T11:55:13.879Z,64.67
2023-03-05T11:57:19.740Z,64.14
2023-03-05T11:59:28.895Z,64.99
2023-03-05T12:01:36.031Z,64.24
2023-03-05T12:03:39.654Z,64.03
2023-03-05T12:05:46.372Z,62.32
2023-03-05T12:07:53.293Z,61.45
2023-03-05T12:09:56.254Z,59.28
2023-03-05T12:12:07.452Z,59.36
2023-03-05T12:14:22.015Z,61.19
2023-03-05T12:16:32.024Z,60.76
2023-03-05T12:18:45.294Z,60.48
2023-03-05T12:21:00.856Z,63.25
2023-03-05T12:23:05.190Z,63.44
2023-03-05T12:25:29.278Z,63.93
2023-03-05T12:27:34.606Z,62.26
2023-03-05T12:29:44.788Z,64.65
2023-03-05T12:31:47.686Z,65.33
2023-03-05T12:33:50.836Z,66.12
2023-03-05T12:35:53.687Z,67.11
2023-03-05T12:38:17.178Z,64.77
2023-03-05T12:40:29.005Z,67.42
2023-03-05T12:42:53.087Z,64.37
2023-03-05T12:45:29.146Z,63.38
2023-03-05T12:47:33.505Z,64.81
2023-03-05T12:49:39.235Z,65.38
2023-03-05T12:51:42.769Z,65.23
2023-03-05T12:53:45.727Z,66.18
2023-03-05T12:55:58.389Z,66.91
2023-03-05T12:58:05.310Z,65.54
2023-03-05T13:00:14.949Z,63.25
2023-03-05T13:02:27.568Z,67.07
2023-03-05T13:04:35.435Z,65.07
2023-03-05T13:06:39.922Z,64.16
2023-03-05T13:08:43.971Z,66.96
2023-03-05T13:10:52.716Z,66.01
2023-03-05T13:12:58.843Z,66.17
2023-03-05T13:15:04.652Z,66.31
2023-03-05T13:17:38.398Z,66.16
2023-03-05T13:19:43.769Z,66.19
2023-03-05T13:21:46.908Z,63.75
2023-03-05T13:23:58.033Z,65.44
2023-03-05T13:26:13.516Z,67.25
2023-03-05T13:28:17.446Z,67.25
2023-03-05T13:30:26.646Z,69.70
2023-03-05T13:32:32.194Z,70.51
2023-03-05T13:34:47.085Z,71.62
2023-03-05T13:36:58.277Z,70.69
2023-03-05T13:39:02.604Z,71.81
2023-03-05T13:41:09.196Z,70.68
2023-03-05T13:43:18.984Z,69.46
2023-03-05T13:45:26.178Z,70.60
2023-03-05T13:47:31.995Z,71.54
2023-03-05T13:49:35.014Z,71.23
2023-03-05T13:51:45.384Z,69.57
2023-03-05T13:53:50.577Z,69.61
2023-03-05T13:55:56.851Z,68.00
2023-03-05T13:58:00.193Z,70.08
2023-03-05T14:00:04.242Z,67.58
2023-03-05T14:02:18.332Z,68.71
2023-03-05T14:04:24.916Z,69.31
2023-03-05T14:06:29.892Z,69.47
2023-03-05T14:08:33.831Z,69.10
2023-03-05T14:10:39.296Z,68.91
2023-03-05T14:12:44.082Z,67.60
2023-03-05T14:14:47.695Z,67.96
2023-03-05T14:16:50.619Z,69.81
2023-03-05T14:18:55.656Z,68.66
2023-03-05T14:21:02.095Z,67.08
2023-03-05T14:23:27.234Z,67.17
2023-03-05T14:25:36.767Z,68.27
2023-03-05T14:27:41.425Z,68.76
2023-03-05T14:29:46.689Z,67.58
2023-03-05T14:31:52.096Z,67.13
2023-03-05T14:34:01.135Z,67.48
2023-03-05T14:36:05.506Z,66.95
2023-03-05T14:38:16.767Z,66.30
2023-03-05T14:40:22.078Z,67.87
2023-03-05T14:42:33.458Z,68.43
2023-03-05T14:44:37.927Z,69.47
2023-03-05T14:46:41.430Z,67.74
2023-03-05T14:48:44.347Z,67.77
2023-03-05T14:50:54.103Z,68.76
2023-03-05T14:53:01.950Z,69.46
2023-03-05T14:55:06.024Z,70.22
2023-03-05T14:57:15.862Z,69.72
2023-03-05T14:59:18.882Z,71.97
2023-03-05T15:01:25.240Z,70.54
2023-03-05T15:03:28.618Z,70.78
2023-03-05T15:05:32.571Z,69.81
2023-03-05T15:07:35.692Z,70.75
2023-03-05T15:09:38.724Z,71.35
2023-03-05T15:11:41.683Z,72.53
2023-03-05T15:13:44.930Z,74.69
2023-03-05T15:15:49.402Z,76.47
2023-03-05T15:17:57.976Z,77.52
2023-03-05T15:20:01.276Z,77.21
2023-03-05T15:22:04.509Z,77.59
2023-03-05T15:24:10.121Z,77.58
2023-03-05T15:26:15.369Z,76.75
2023-03-05T15:28:18.390Z,77.35
2023-03-05T15:30:23.564Z,77.62
2023-03-05T15:32:27.795Z,77.98
2023-03-05T15:34:34.092Z,76.39
2023-03-05T15:36:36.982Z,76.20
2023-03-05T15:38:41.974Z,76.18
2023-03-05T15:40:45.289Z,75.87
2023-03-05T15:42:49.303Z,77.13
2023-03-05T15:44:52.227Z,76.23
2023-03-05T15:46:57.065Z,75.06
2023-03-05T15:49:00.306Z,75.83
2023-03-05T15:51:07.471Z,75.30
2023-03-05T15:53:12.248Z,76.75
2023-03-05T15:55:15.356Z,76.05
2023-03-05T15:57:24.033Z,75.36
2023-03-05T15:59:27.587Z,75.84
2023-03-05T16:01:30.486Z,76.10
2023-03-05T16:03:33.510Z,75.38
2023-03-05T16:05:38.215Z,75.84
2023-03-05T16:07:46.454Z,75.98
2023-03-05T16:09:51.847Z,76.36
2023-03-05T16:11:54.860Z,74.57
2023-03-05T16:13:58.125Z,75.84
2023-03-05T16:16:03.308Z,75.17
2023-03-05T16:18:11.370Z,76.50
2023-03-05T16:20:16.424Z,79.90
2023-03-05T16:22:19.745Z,79.44
2023-03-05T16:24:24.253Z,78.85
2023-03-05T16:26:27.616Z,81.06
2023-03-05T16:28:30.598Z,80.83
2023-03-05T16:30:33.831Z,82.24
2023-03-05T16:32:37.965Z,81.02
2023-03-05T16:34:40.974Z,81.55
2023-03-05T16:36:49.263Z,81.67
2023-03-05T16:38:54.327Z,82.64
2023-03-05T16:41:07.839Z,81.74
2023-03-05T16:43:11.325Z,82.14
2023-03-05T16:45:14.363Z,81.59
2023-03-05T16:47:17.285Z,81.94
2023-03-05T16:49:20.827Z,82.24
2023-03-05T16:51:24.348Z,81.32
2023-03-05T16:53:27.224Z,82.05
2023-03-05T16:55:30.373Z,82.92
2023-03-05T16:57:35.185Z,82.66
2023-03-05T16:59:38.592Z,83.11
2023-03-05T17:01:41.622Z,82.53
2023-03-05T17:03:45.307Z,82.33
2023-03-05T17:05:48.188Z,83.84
2023-03-05T17:07:51.032Z,83.74
2023-03-05T17:09:54.699Z,83.53
2023-03-05T17:11:57.602Z,82.39
2023-03-05T17:14:04.269Z,82.24
2023-03-05T17:16:08.433Z,82.51
2023-03-05T17:18:11.381Z,82.12
2023-03-05T17:20:14.508Z,82.48
2023-03-05T17:22:17.714Z,83.68
2023-03-05T17:24:22.275Z,82.87
2023-03-05T17:26:25.750Z,83.46
2023-03-05T17:28:28.561Z,82.62
2023-03-05T17:30:33.753Z,82.98
2023-03-05T17:32:36.750Z,82.50
2023-03-05T17:34:40.248Z,82.29
2023-03-05T17:36:43.340Z,83.51
2023-03-05T17:38:47.927Z,82.26
2023-03-05T17:40:50.922Z,81.95
2023-03-05T17:42:53.790Z,81.64
2023-03-05T17:44:57.541Z,82.35
2023-03-05T17:47:02.006Z,83.83
2023-03-05T17:49:04.840Z,83.42
2023-03-05T17:51:08.120Z,82.53
2023-03-05T17:53:11.101Z,82.66
2023-03-05T17:55:17.544Z,83.50
2023-03-05T17:57:20.561Z,84.54
2023-03-05T17:59:24.295Z,83.62
2023-03-05T18:01:29.821Z,84.55
2023-03-05T18:03:33.953Z,85.25
2023-03-05T18:05:37.261Z,85.51
2023-03-05T18:07:40.647Z,84.37
2023-03-05T18:09:43.682Z,85.56
2023-03-05T18:11:46.649Z,84.40
2023-03-05T18:13:49.672Z,86.00
2023-03-05T18:15:52.854Z,85.57
2023-03-05T18:17:55.976Z,85.56
2023-03-05T18:20:02.848Z,85.51
2023-03-05T18:22:06.886Z,85.82
2023-03-05T18:24:10.014Z,86.36
2023-03-05T18:26:13.012Z,85.90
2023-03-05T18:28:17.020Z,84.97
2023-03-05T18:30:20.040Z,84.58
2023-03-05T18:32:24.527Z,86.52
2023-03-05T18:34:27.969Z,85.83
2023-03-05T18:36:33.261Z,86.14
2023-03-05T18:38:36.628Z,86.11
2023-03-05T18:40:40.499Z,85.46
2023-03-05T18:42:43.359Z,85.21
2023-03-05T18:44:46.308Z,86.50
2023-03-05T18:46:49.215Z,85.87
2023-03-05T18:48:52.448Z,86.03
2023-03-05T18:50:55.526Z,86.30
2023-03-05T18:53:00.157Z,85.88
2023-03-05T18:55:03.017Z,87.14
2023-03-05T18:57:05.958Z,87.19
2023-03-05T18:59:08.898Z,87.32
2023-03-05T19:01:11.931Z,87.05
2023-03-05T19:03:15.241Z,87.86
2023-03-05T19:05:18.712Z,86.96
2023-03-05T19:07:21.657Z,87.59
2023-03-05T19:09:53.881Z,87.69
2023-03-05T19:11:56.916Z,87.35
2023-03-05T19:13:59.910Z,87.93
2023-03-05T19:16:08.236Z,88.29
2023-03-05T19:18:11.240Z,87.58
2023-03-05T19:20:16.230Z,87.87
2023-03-05T19:22:19.433Z,87.71
2023-03-05T19:24:23.974Z,88.13
2023-03-05T19:26:28.210Z,88.81
2023-03-05T19:28:31.294Z,88.35
2023-03-05T19:30:34.422Z,88.77
2023-03-05T19:32:37.879Z,88.03
2023-03-05T19:34:41.362Z,87.86
2023-03-05T19:36:44.513Z,88.93
2023-03-05T19:38:48.657Z,88.88
2023-03-05T19:40:52.598Z,88.71
2023-03-05T19:42:58.078Z,88.67
2023-03-05T19:45:02.016Z,89.14
2023-03-05T19:47:05.079Z,89.21
2023-03-05T19:49:08.322Z,88.33
2023-03-05T19:51:17.055Z,89.09
2023-03-05T19:53:20.077Z,89.29
2023-03-05T19:55:22.902Z,89.34
2023-03-05T19:57:25.896Z,89.60
2023-03-05T19:59:30.355Z,88.87
2023-03-05T20:01:33.556Z,89.66
2023-03-05T20:03:38.665Z,89.42
2023-03-05T20:05:42.356Z,89.56
2023-03-05T20:07:45.275Z,89.85
2023-03-05T20:09:50.522Z,89.39
2023-03-05T20:11:53.539Z,89.30
2023-03-05T20:13:56.633Z,89.64
2023-03-05T20:16:01.266Z,90.44
2023-03-05T20:18:04.592Z,90.21
2023-03-05T20:20:08.721Z,90.17
2023-03-05T20:22:11.628Z,89.98
2023-03-05T20:24:16.943Z,90.17
2023-03-05T20:26:20.178Z,90.47
2023-03-05T20:28:26.443Z,90.23
2023-03-05T20:30:30.009Z,90.13
2023-03-05T20:32:34.460Z,90.57
2023-03-05T20:34:37.358Z,90.55
2023-03-05T20:36:40.657Z,90.34
2023-03-05T20:38:45.999Z,90.33
2023-03-05T20:40:50.199Z,90.77
2023-03-05T20:42:53.227Z,90.25
2023-03-05T20:44:56.161Z,90.98
2023-03-05T20:47:46.377Z,90.87
2023-03-05T20:49:55.161Z,91.02
2023-03-05T20:51:58.015Z,90.98
2023-03-05T20:54:04.378Z,91.29
2023-03-05T20:56:07.842Z,91.48
2023-03-05T20:58:11.193Z,91.40
2023-03-05T21:00:15.203Z,91.03
2023-03-05T21:02:18.731Z,91.12
2023-03-05T21:04:21.800Z,91.14
2023-03-05T21:06:27.464Z,91.30
2023-03-05T21:08:30.645Z,91.28
2023-03-05T21:10:33.693Z,90.73
2023-03-05T21:12:36.537Z,90.84
2023-03-05T21:14:41.130Z,90.05
2023-03-05T21:16:44.022Z,90.79
2023-03-05T21:18:46.924Z,90.42
2023-03-05T21:20:50.484Z,90.40
2023-03-05T21:22:55.471Z,90.27
2023-03-05T21:25:23.283Z,91.00
2023-03-05T21:27:26.246Z,90.15
2023-03-05T21:29:29.103Z,90.32
2023-03-05T21:31:32.570Z,89.96
2023-03-05T21:33:35.738Z,89.71
2023-03-05T21:35:39.860Z,89.63
2023-03-05T21:37:43.213Z,89.29
2023-03-05T21:39:47.682Z,89.02
2023-03-05T21:41:50.834Z,88.89
2023-03-05T21:43:54.032Z,89.61
2023-03-05T21:45:58.049Z,88.80
2023-03-05T21:48:01.395Z,89.79
2023-03-05T21:50:04.612Z,90.12
2023-03-05T21:52:12.244Z,89.80
2023-03-05T21:54:15.155Z,89.52
2023-03-05T21:56:25.613Z,89.09
2023-03-05T21:58:28.533Z,89.37
2023-03-05T22:00:31.490Z,89.89
2023-03-05T22:02:34.396Z,89.66
2023-03-05T22:04:37.436Z,90.77
2023-03-05T22:06:40.316Z,89.32
2023-03-05T22:08:43.266Z,89.29
2023-03-05T22:10:46.411Z,90.43
2023-03-05T22:13:11.841Z,90.59
2023-03-05T22:15:14.798Z,90.03
2023-03-05T22:17:17.753Z,89.95
2023-03-05T22:19:20.950Z,89.77
2023-03-05T22:21:27.232Z,90.45
2023-03-05T22:23:31.811Z,90.89
2023-03-05T22:25:34.862Z,90.27
2023-03-05T22:27:37.702Z,90.33
2023-03-05T22:29:42.143Z,90.43
2023-03-05T22:31:45.563Z,90.89
2023-03-05T22:33:48.612Z,90.31
2023-03-05T22:35:51.898Z,89.93
2023-03-05T22:37:54.834Z,90.13
2023-03-05T22:39:58.213Z,89.63
2023-03-05T22:42:01.441Z,90.15
2023-03-05T22:44:04.471Z,89.99
2023-03-05T22:46:13.566Z,90.19
2023-03-05T22:48:16.855Z,89.98
2023-03-05T22:50:20.366Z,89.14
2023-03-05T22:52:23.310Z,90.23
2023-03-05T22:54:26.325Z,90.05
2023-03-05T22:56:29.192Z,90.03
2023-03-05T22:58:32.210Z,89.83
2023-03-05T23:00:35.175Z,90.00
2023-03-05T23:02:39.693Z,89.91
2023-03-05T23:04:52.980Z,89.83
2023-03-05T23:06:56.058Z,89.81
2023-03-05T23:08:58.949Z,90.03
2023-03-05T23:11:07.769Z,90.29
2023-03-05T23:13:10.628Z,89.63
2023-03-05T23:15:15.841Z,89.84
2023-03-05T23:17:18.751Z,90.20
2023-03-05T23:19:23.170Z,89.57
2023-03-05T23:21:26.394Z,90.17
2023-03-05T23:23:29.254Z,89.94
2023-03-05T23:25:34.112Z,90.15
2023-03-05T23:27:37.004Z,89.33
2023-03-05T23:30:23.077Z,90.32
2023-03-05T23:32:29.155Z,89.77
2023-03-05T23:34:33.525Z,89.77
2023-03-05T23:36:36.392Z,90.23
2023-03-05T23:38:39.354Z,89.85
2023-03-05T23:40:43.687Z,89.72
2023-03-05T23:42:46.701Z,90.38
2023-03-05T23:44:49.703Z,90.68
2023-03-05T23:46:52.531Z,88.99
2023-03-05T23:48:55.425Z,90.33
2023-03-05T23:50:59.917Z,90.27
2023-03-05T23:53:03.290Z,90.52
2023-03-05T23:55:07.279Z,90.26
2023-03-05T23:57:10.230Z,89.70
2023-03-05T23:59:13.040Z,90.13
